createdAt,value
2022-09-15T00:01:51.860Z,17.73
2022-09-15T00:04:54.156Z,16.95
2022-09-15T00:07:56.356Z,17.58
2022-09-15T00:11:06.226Z,16.83
2022-09-15T00:14:08.953Z,15.88
2022-09-15T00:17:11.172Z,15.90
2022-09-15T00:20:13.334Z,16.27
2022-09-15T00:23:16.598Z,16.75
2022-09-15T00:26:22.493Z,14.75
2022-09-15T00:29:24.737Z,15.70
2022-09-15T00:32:27.349Z,16.75
2022-09-15T00:35:29.612Z,16.30
2022-09-15T00:38:32.315Z,16.02
2022-09-15T00:41:36.042Z,15.13
2022-09-15T00:44:51.363Z,14.60
2022-09-15T00:47:53.652Z,16.17
2022-09-15T00:50:57.073Z,14.88
2022-09-15T00:54:01.867Z,15.57
2022-09-15T00:57:08.675Z,15.88
2022-09-15T01:00:13.808Z,14.77
2022-09-15T01:03:17.464Z,15.65
2022-09-15T01:06:23.280Z,14.80
2022-09-15T01:09:29.091Z,15.60
2022-09-15T01:12:32.906Z,15.63
2022-09-15T01:15:42.689Z,14.52
2022-09-15T01:18:51.441Z,13.75
2022-09-15T01:21:58.959Z,15.68
2022-09-15T01:25:08.983Z,14.57
2022-09-15T01:28:30.616Z,14.68
2022-09-15T01:31:58.351Z,14.25
2022-09-15T01:35:02.995Z,16.13
2022-09-15T01:38:09.256Z,14.60
2022-09-15T01:41:16.022Z,15.55
2022-09-15T01:44:21.452Z,15.55
2022-09-15T01:47:26.166Z,14.98
2022-09-15T01:50:31.437Z,15.15
2022-09-15T01:53:34.194Z,14.10
2022-09-15T01:56:37.042Z,14.98
2022-09-15T01:59:39.351Z,15.60
2022-09-15T02:02:46.184Z,15.48
2022-09-15T02:05:51.167Z,14.40
2022-09-15T02:08:57.416Z,15.90
2022-09-15T02:12:07.638Z,13.85
2022-09-15T02:15:14.933Z,15.00
2022-09-15T02:18:24.235Z,14.35
2022-09-15T02:21:31.579Z,15.20
2022-09-15T02:24:38.040Z,14.85
2022-09-15T02:27:44.252Z,15.27
2022-09-15T02:30:46.934Z,15.15
2022-09-15T02:33:54.350Z,15.13
2022-09-15T02:36:56.815Z,15.65
2022-09-15T02:39:59.696Z,14.02
2022-09-15T02:43:03.475Z,14.93
2022-09-15T02:46:06.162Z,14.93
2022-09-15T02:49:09.850Z,14.65
2022-09-15T02:52:12.421Z,15.23
2022-09-15T02:55:15.810Z,14.43
2022-09-15T02:58:18.184Z,14.77
2022-09-15T03:01:20.469Z,15.10
2022-09-15T03:04:24.181Z,14.93
2022-09-15T03:07:27.002Z,14.20
2022-09-15T03:10:29.498Z,13.70
2022-09-15T03:13:31.742Z,14.40
2022-09-15T03:16:35.228Z,15.63
2022-09-15T03:19:39.067Z,15.40
2022-09-15T03:22:41.793Z,14.13
2022-09-15T03:25:45.476Z,14.43
2022-09-15T03:28:47.713Z,14.55
2022-09-15T03:31:50.151Z,13.20
2022-09-15T03:34:57.728Z,14.55
2022-09-15T03:38:00.681Z,13.90
2022-09-15T03:41:05.477Z,13.13
2022-09-15T03:44:07.841Z,14.48
2022-09-15T03:47:10.151Z,13.60
2022-09-15T03:50:13.865Z,13.98
2022-09-15T03:53:16.509Z,14.07
2022-09-15T03:56:22.720Z,13.60
2022-09-15T03:59:24.990Z,13.70
2022-09-15T04:02:27.317Z,12.90
2022-09-15T04:05:31.037Z,12.60
2022-09-15T04:08:33.376Z,13.27
2022-09-15T04:11:36.036Z,13.15
2022-09-15T04:14:38.462Z,13.77
2022-09-15T04:17:40.690Z,13.57
2022-09-15T04:20:44.527Z,13.38
2022-09-15T04:23:47.190Z,14.05
2022-09-15T04:26:49.964Z,14.27
2022-09-15T04:29:52.643Z,14.30
2022-09-15T04:32:54.988Z,15.07
2022-09-15T04:36:00.110Z,14.73
2022-09-15T04:39:02.706Z,16.45
2022-09-15T04:42:06.942Z,14.93
2022-09-15T04:45:10.055Z,15.43
2022-09-15T04:48:12.327Z,14.85
2022-09-15T04:51:17.926Z,14.32
2022-09-15T04:54:20.348Z,15.45
2022-09-15T04:57:22.674Z,15.85
2022-09-15T05:00:26.471Z,15.77
2022-09-15T05:03:29.018Z,15.85
2022-09-15T05:06:33.254Z,16.15
2022-09-15T05:09:35.670Z,15.27
2022-09-15T05:12:37.996Z,16.60
2022-09-15T05:15:40.267Z,15.95
2022-09-15T05:18:43.915Z,16.65
2022-09-15T05:21:48.907Z,18.15
2022-09-15T05:24:51.304Z,16.10
2022-09-15T05:27:53.796Z,14.80
2022-09-15T05:30:56.336Z,14.95
2022-09-15T05:34:00.300Z,14.68
2022-09-15T05:37:05.237Z,16.35
2022-09-15T05:40:09.185Z,15.05
2022-09-15T05:43:11.641Z,13.93
2022-09-15T05:46:15.023Z,13.48
2022-09-15T05:49:17.328Z,14.57
2022-09-15T05:52:21.754Z,14.27
2022-09-15T05:55:24.284Z,14.45
2022-09-15T05:58:27.701Z,13.68
2022-09-15T06:01:31.028Z,13.43
2022-09-15T06:04:34.197Z,13.93
2022-09-15T06:07:39.093Z,13.27
2022-09-15T06:10:41.396Z,14.27
2022-09-15T06:13:44.250Z,15.05
2022-09-15T06:16:46.598Z,13.45
2022-09-15T06:19:48.850Z,14.52
2022-09-15T06:22:53.010Z,14.30
2022-09-15T06:25:55.205Z,13.52
2022-09-15T06:28:58.723Z,12.85
2022-09-15T06:32:02.823Z,13.95
2022-09-15T06:35:08.374Z,14.50
2022-09-15T06:38:12.072Z,12.82
2022-09-15T06:41:15.174Z,13.13
2022-09-15T06:44:17.651Z,13.18
2022-09-15T06:48:35.364Z,12.23
2022-09-15T06:51:40.260Z,13.57
2022-09-15T06:54:59.750Z,11.43
2022-09-15T06:58:32.152Z,12.43
2022-09-15T07:01:34.363Z,11.52
2022-09-15T07:04:39.579Z,12.73
2022-09-15T07:07:41.921Z,11.55
2022-09-15T07:10:54.783Z,10.65
2022-09-15T07:13:59.458Z,11.90
2022-09-15T07:17:03.886Z,12.43
2022-09-15T07:20:06.551Z,12.05
2022-09-15T07:23:14.686Z,13.35
2022-09-15T07:26:19.980Z,13.77
2022-09-15T07:29:25.113Z,12.75
2022-09-15T07:32:28.579Z,12.88
2022-09-15T07:35:30.742Z,12.90
2022-09-15T07:38:33.225Z,10.93
2022-09-15T07:41:36.944Z,11.55
2022-09-15T07:44:39.436Z,11.35
2022-09-15T07:47:42.024Z,10.80
2022-09-15T07:50:46.898Z,11.32
2022-09-15T07:53:50.006Z,11.32
2022-09-15T07:56:54.040Z,11.70
2022-09-15T07:59:56.637Z,11.25
2022-09-15T08:02:59.316Z,12.55
2022-09-15T08:06:04.736Z,11.00
2022-09-15T08:09:07.526Z,10.00
2022-09-15T08:12:13.928Z,10.05
2022-09-15T08:15:16.865Z,9.98
2022-09-15T08:18:19.218Z,8.82
2022-09-15T08:21:22.827Z,10.80
2022-09-15T08:24:26.552Z,10.43
2022-09-15T08:27:33.126Z,8.65
2022-09-15T08:30:35.624Z,10.20
2022-09-15T08:33:41.840Z,9.68
2022-09-15T08:36:46.993Z,9.85
2022-09-15T08:39:49.221Z,8.80
2022-09-15T08:42:55.522Z,9.48
2022-09-15T08:46:00.600Z,10.95
2022-09-15T08:49:05.820Z,11.18
2022-09-15T08:52:15.516Z,9.27
2022-09-15T08:55:21.612Z,8.70
2022-09-15T08:58:27.479Z,7.55
2022-09-15T09:01:41.444Z,7.32
2022-09-15T09:05:04.556Z,7.63
2022-09-15T09:08:19.144Z,7.88
2022-09-15T09:11:31.252Z,8.27
2022-09-15T09:14:44.800Z,8.13
2022-09-15T09:18:03.313Z,7.80
2022-09-15T09:21:11.662Z,7.53
2022-09-15T09:24:16.424Z,6.10
2022-09-15T09:27:21.839Z,5.28
2022-09-15T09:30:27.645Z,7.25
2022-09-15T09:33:34.689Z,6.10
2022-09-15T09:36:37.245Z,4.95
2022-09-15T09:39:39.728Z,4.50
2022-09-15T09:42:42.651Z,4.72
2022-09-15T09:45:46.260Z,4.57
2022-09-15T09:48:52.607Z,4.10
2022-09-15T09:51:57.103Z,3.88
2022-09-15T09:55:00.698Z,4.05
2022-09-15T09:58:13.427Z,3.75
2022-09-15T10:04:21.039Z,3.80
2022-09-15T10:07:26.185Z,3.92
2022-09-15T10:10:35.522Z,3.20
2022-09-15T10:13:50.517Z,1.98
2022-09-15T10:17:01.709Z,1.92
2022-09-15T10:20:06.658Z,1.65
2022-09-15T10:23:26.232Z,1.55
2022-09-15T10:26:41.537Z,1.83
2022-09-15T10:29:44.011Z,2.42
2022-09-15T10:32:48.602Z,2.83
2022-09-15T10:35:51.408Z,2.55
2022-09-15T10:39:00.323Z,3.08
2022-09-15T10:42:08.873Z,2.85
2022-09-15T10:45:18.700Z,1.98
2022-09-15T10:48:36.037Z,2.33
2022-09-15T10:51:46.710Z,2.08
2022-09-15T10:55:01.944Z,1.30
2022-09-15T10:58:34.449Z,1.55
2022-09-15T11:01:52.069Z,2.25
2022-09-15T11:05:28.391Z,1.60
2022-09-15T11:08:46.593Z,1.10
2022-09-15T11:11:57.802Z,1.50
2022-09-15T11:15:10.403Z,1.40
2022-09-15T11:18:31.448Z,1.30
2022-09-15T11:21:43.834Z,1.83
2022-09-15T11:24:49.193Z,2.13
2022-09-15T11:27:54.100Z,2.00
2022-09-15T11:31:00.992Z,2.08
2022-09-15T11:34:05.363Z,2.40
2022-09-15T11:37:12.554Z,2.60
2022-09-15T11:40:18.818Z,3.20
2022-09-15T11:43:27.969Z,2.08
2022-09-15T11:46:39.492Z,1.60
2022-09-15T11:49:46.460Z,1.40
2022-09-15T11:52:55.512Z,1.63
2022-09-15T11:56:08.234Z,2.00
2022-09-15T11:59:17.446Z,1.65
2022-09-15T12:02:24.878Z,1.73
2022-09-15T12:05:31.893Z,1.67
2022-09-15T12:08:37.674Z,1.48
2022-09-15T12:11:42.607Z,1.40
2022-09-15T12:14:47.291Z,1.00
2022-09-15T12:17:54.209Z,1.00
2022-09-15T12:21:01.250Z,1.65
2022-09-15T12:24:11.524Z,0.77
2022-09-15T12:27:16.562Z,0.85
2022-09-15T12:30:39.021Z,0.80
2022-09-15T12:33:43.877Z,0.77
2022-09-15T12:36:47.282Z,0.95
2022-09-15T12:39:51.469Z,0.77
2022-09-15T12:42:53.839Z,1.00
2022-09-15T12:45:59.912Z,0.80
2022-09-15T12:49:03.161Z,0.77
2022-09-15T12:52:07.284Z,0.80
2022-09-15T12:55:17.762Z,0.70
2022-09-15T12:58:26.096Z,0.80
2022-09-15T13:01:52.984Z,0.75
2022-09-15T13:04:55.770Z,0.60
2022-09-15T13:08:02.936Z,1.10
2022-09-15T13:11:08.891Z,0.90
2022-09-15T13:14:22.645Z,0.60
2022-09-15T13:17:26.068Z,0.60
2022-09-15T13:20:32.273Z,0.90
2022-09-15T13:23:37.042Z,0.60
2022-09-15T13:26:41.074Z,0.70
2022-09-15T13:29:47.993Z,0.70
2022-09-15T13:32:55.308Z,0.70
2022-09-15T13:36:05.073Z,0.68
2022-09-15T13:39:32.094Z,0.75
2022-09-15T13:42:47.140Z,0.85
2022-09-15T13:45:55.446Z,0.80
2022-09-15T13:49:12.464Z,0.98
2022-09-15T13:52:26.900Z,1.13
2022-09-15T13:55:32.694Z,1.42
2022-09-15T13:59:04.514Z,1.40
2022-09-15T14:02:09.054Z,1.40
2022-09-15T14:05:12.592Z,1.27
2022-09-15T14:08:18.377Z,1.88
2022-09-15T14:11:33.550Z,1.10
2022-09-15T14:14:39.369Z,1.10
2022-09-15T14:17:45.043Z,1.02
2022-09-15T14:20:58.143Z,0.80
2022-09-15T14:24:05.359Z,0.88
2022-09-15T14:27:09.099Z,0.60
2022-09-15T14:30:19.606Z,1.10
2022-09-15T14:33:21.909Z,0.68
2022-09-15T14:36:26.453Z,1.15
2022-09-15T14:39:28.845Z,0.68
2022-09-15T14:42:36.227Z,0.60
2022-09-15T14:49:10.423Z,1.00
2022-09-15T14:52:24.887Z,0.77
2022-09-15T14:55:29.181Z,0.88
2022-09-15T14:58:34.681Z,1.15
2022-09-15T15:01:40.520Z,1.27
2022-09-15T15:04:45.553Z,0.90
2022-09-15T15:07:48.892Z,0.90
2022-09-15T15:10:51.433Z,0.93
2022-09-15T15:13:53.989Z,1.02
2022-09-15T15:17:00.610Z,0.90
2022-09-15T15:20:15.365Z,0.70
2022-09-15T15:23:22.283Z,0.50
2022-09-15T15:26:32.421Z,1.20
2022-09-15T15:29:40.380Z,1.48
2022-09-15T15:32:44.174Z,2.40
2022-09-15T15:35:47.305Z,0.60
2022-09-15T15:38:52.004Z,1.10
2022-09-15T15:42:01.932Z,0.75
2022-09-15T15:45:20.665Z,0.57
2022-09-15T15:48:24.877Z,0.50
2022-09-15T15:51:27.642Z,0.70
2022-09-15T15:54:33.568Z,0.57
2022-09-15T15:57:38.211Z,0.40
2022-09-15T16:00:45.410Z,0.55
2022-09-15T16:03:49.178Z,0.80
2022-09-15T16:06:51.849Z,0.50
2022-09-15T16:09:54.889Z,0.50
2022-09-15T16:12:57.012Z,0.50
2022-09-15T16:16:00.961Z,0.40
2022-09-15T16:19:04.628Z,0.80
2022-09-15T16:22:06.801Z,0.70
2022-09-15T16:25:14.497Z,0.70
2022-09-15T16:28:16.815Z,0.60
2022-09-15T16:31:19.083Z,0.60
2022-09-15T16:34:22.916Z,1.25
2022-09-15T16:37:25.290Z,0.60
2022-09-15T16:40:27.587Z,0.80
2022-09-15T16:43:29.721Z,0.82
2022-09-15T16:46:32.026Z,1.40
2022-09-15T16:49:37.400Z,1.00
2022-09-15T16:52:42.062Z,1.23
2022-09-15T16:55:48.891Z,0.95
2022-09-15T16:58:58.944Z,0.95
2022-09-15T17:02:02.358Z,0.60
2022-09-15T17:05:21.197Z,0.82
2022-09-15T17:08:28.629Z,1.67
2022-09-15T17:11:30.880Z,2.30
2022-09-15T17:14:33.111Z,2.25
2022-09-15T17:17:35.499Z,0.85
2022-09-15T17:20:39.539Z,1.02
2022-09-15T17:23:44.945Z,2.15
2022-09-15T17:26:47.102Z,2.63
2022-09-15T17:29:49.395Z,0.95
2022-09-15T17:32:52.107Z,1.60
2022-09-15T17:35:55.738Z,1.20
2022-09-15T17:38:57.926Z,1.67
2022-09-15T17:45:02.400Z,1.20
2022-09-15T17:48:04.997Z,0.73
2022-09-15T17:51:14.635Z,1.30
2022-09-15T17:54:19.551Z,1.23
2022-09-15T17:57:21.855Z,0.85
2022-09-15T18:00:25.381Z,0.85
2022-09-15T18:03:29.616Z,0.50
2022-09-15T18:06:33.413Z,0.80
2022-09-15T18:09:35.566Z,0.70
2022-09-15T18:12:37.727Z,0.80
2022-09-15T18:15:40.285Z,0.93
2022-09-15T18:18:42.876Z,1.00
2022-09-15T18:21:48.414Z,0.90
2022-09-15T18:24:50.547Z,0.70
2022-09-15T18:27:53.413Z,0.90
2022-09-15T18:30:55.609Z,0.90
2022-09-15T18:33:57.834Z,1.00
2022-09-15T18:37:01.519Z,0.90
2022-09-15T18:40:07.120Z,1.38
2022-09-15T18:43:09.428Z,0.80
2022-09-15T18:46:11.650Z,1.30
2022-09-15T18:49:13.961Z,1.75
2022-09-15T18:52:17.471Z,0.85
2022-09-15T18:55:21.377Z,1.48
2022-09-15T18:58:24.054Z,0.90
2022-09-15T19:01:26.580Z,0.75
2022-09-15T19:04:32.679Z,1.00
2022-09-15T19:07:38.199Z,0.68
2022-09-15T19:10:43.719Z,0.77
2022-09-15T19:13:46.072Z,1.02
2022-09-15T19:16:57.719Z,0.93
2022-09-15T19:20:00.621Z,0.80
2022-09-15T19:23:04.132Z,0.82
2022-09-15T19:26:08.619Z,0.52
2022-09-15T19:29:11.036Z,0.70
2022-09-15T19:32:14.570Z,0.70
2022-09-15T19:35:16.863Z,1.10
2022-09-15T19:38:20.721Z,0.70
2022-09-15T19:41:23.187Z,0.70
2022-09-15T19:44:25.408Z,0.50
2022-09-15T19:47:27.554Z,0.88
2022-09-15T19:50:29.723Z,0.82
2022-09-15T19:53:33.526Z,0.70
2022-09-15T19:56:36.247Z,0.70
2022-09-15T19:59:38.605Z,1.15
2022-09-15T20:02:42.246Z,0.68
2022-09-15T20:05:52.635Z,1.13
2022-09-15T20:09:00.526Z,0.60
2022-09-15T20:12:06.209Z,0.83
2022-09-15T20:15:11.813Z,0.60
2022-09-15T20:18:16.317Z,0.80
2022-09-15T20:21:32.455Z,0.60
2022-09-15T20:24:42.619Z,0.70
2022-09-15T20:27:45.113Z,1.08
2022-09-15T20:31:08.164Z,1.00
2022-09-15T20:34:11.104Z,0.80
2022-09-15T20:37:13.724Z,1.25
2022-09-15T20:40:17.544Z,0.80
2022-09-15T20:43:19.843Z,0.88
2022-09-15T20:46:23.306Z,0.90
2022-09-15T20:49:25.554Z,1.00
2022-09-15T20:52:32.587Z,0.70
2022-09-15T20:55:38.371Z,0.75
2022-09-15T20:58:40.970Z,0.70
2022-09-15T21:01:43.560Z,0.70
2022-09-15T21:04:47.446Z,0.80
2022-09-15T21:07:55.616Z,0.73
2022-09-15T21:11:02.105Z,0.88
2022-09-15T21:14:04.597Z,0.60
2022-09-15T21:17:07.658Z,0.68
2022-09-15T21:20:10.293Z,0.80
2022-09-15T21:23:12.932Z,0.65
2022-09-15T21:26:18.383Z,1.00
2022-09-15T21:29:20.823Z,0.90
2022-09-15T21:32:24.255Z,1.00
2022-09-15T21:35:26.531Z,0.50
2022-09-15T21:38:28.714Z,0.80
2022-09-15T21:41:32.459Z,1.30
2022-09-15T21:44:34.832Z,1.00
2022-09-15T21:47:37.519Z,0.60
2022-09-15T21:50:46.047Z,0.60
2022-09-15T21:53:50.246Z,0.70
2022-09-15T21:56:53.973Z,0.60
2022-09-15T21:59:56.134Z,0.50
2022-09-15T22:02:58.973Z,0.70
2022-09-15T22:06:01.804Z,0.88
2022-09-15T22:09:06.279Z,0.60
2022-09-15T22:12:10.539Z,0.85
2022-09-15T22:15:12.830Z,0.60
2022-09-15T22:18:15.082Z,0.80
2022-09-15T22:21:18.750Z,1.27
2022-09-15T22:24:20.980Z,1.10
2022-09-15T22:27:24.557Z,0.70
2022-09-15T22:30:26.965Z,1.23
2022-09-15T22:33:29.502Z,0.93
2022-09-15T22:36:32.153Z,0.98
2022-09-15T22:39:57.150Z,1.17
2022-09-15T22:42:57.955Z,1.23
2022-09-15T22:46:00.212Z,0.75
2022-09-15T22:49:02.573Z,0.90
2022-09-15T22:52:04.797Z,0.95
2022-09-15T22:55:07.905Z,0.60
2022-09-15T22:58:11.554Z,0.68
2022-09-15T23:01:15.038Z,0.57
2022-09-15T23:04:17.278Z,0.70
2022-09-15T23:07:19.441Z,0.77
2022-09-15T23:10:21.680Z,0.70
2022-09-15T23:13:25.342Z,1.00
2022-09-15T23:16:28.319Z,0.70
2022-09-15T23:19:30.779Z,0.75
2022-09-15T23:22:33.016Z,0.57
2022-09-15T23:25:35.230Z,0.68
2022-09-15T23:28:39.366Z,0.70
2022-09-15T23:31:41.739Z,0.80
2022-09-15T23:34:44.088Z,0.75
2022-09-15T23:37:46.306Z,0.98
2022-09-15T23:40:50.532Z,1.15
2022-09-15T23:43:55.451Z,0.68
2022-09-15T23:46:57.857Z,0.70
2022-09-15T23:50:00.343Z,0.73
2022-09-15T23:53:02.867Z,0.68
2022-09-15T23:56:05.622Z,0.90
2022-09-15T23:59:09.266Z,0.50
